Time;durP1;ratioP1;P1;durP2;ratioP2;P2;SDS_P1;SDS_P2;PMS_P1;PMS_P2;Temp;Humidity;BMP_temperature;BMP_pressure;BME280_temperature;BME280_humidity;BME280_pressure;Samples;Min_cycle;Max_cycle;Signal;HPM_P1;HPM_P2
2022/08/08 00:01:43;;;;;;;2.65;1.88;;;;;;;24.86;39.68;102483.50;5010535;28;20017;-59
2022/08/08 00:04:11;;;;;;;2.40;1.80;;;;;;;24.87;39.91;102487.91;5028112;28;20022;-59
2022/08/08 00:06:48;;;;;;;1.58;1.48;;;;;;;24.85;39.96;102485.38;5010326;28;20026;-59
2022/08/08 00:09:25;;;;;;;3.38;2.13;;;;;;;24.85;39.76;102482.66;5010006;28;20097;-59
2022/08/08 00:11:58;;;;;;;2.42;2.10;;;;;;;24.85;39.85;102477.22;5027659;28;20071;-57
2022/08/08 00:14:52;;;;;;;2.05;1.42;;;;;;;24.80;39.70;102468.69;5029871;28;20057;-60
2022/08/08 00:17:51;;;;;;;2.03;1.50;;;;;;;24.84;39.76;102480.09;5047384;28;20029;-60
2022/08/08 00:20:43;;;;;;;1.70;1.38;;;;;;;24.83;39.80;102483.84;5043750;28;20438;-59
2022/08/08 00:23:37;;;;;;;2.40;1.98;;;;;;;24.82;39.76;102482.16;5046514;28;20064;-59
2022/08/08 00:26:06;;;;;;;2.38;1.67;;;;;;;24.81;39.84;102478.56;5033510;28;20461;-59
2022/08/08 00:28:52;;;;;;;3.15;2.00;;;;;;;24.81;39.68;102477.72;5047034;28;20029;-59
2022/08/08 00:31:24;;;;;;;2.33;2.00;;;;;;;24.80;39.73;102478.72;5029588;28;20094;-59
2022/08/08 00:37:11;;;;;;;2.13;1.60;;;;;;;24.77;39.76;102469.06;5046827;28;20044;-59
2022/08/08 00:39:55;;;;;;;1.55;1.27;;;;;;;24.78;39.61;102473.47;5029203;28;20033;-59
2022/08/08 00:42:44;;;;;;;2.30;1.95;;;;;;;24.76;39.75;102459.16;5029403;28;20474;-59
2022/08/08 00:45:36;;;;;;;2.10;1.48;;;;;;;24.76;39.57;102472.78;5029759;28;20136;-58
2022/08/08 00:48:40;;;;;;;2.22;1.70;;;;;;;24.75;39.69;102457.47;5046426;28;20032;-59
2022/08/08 00:51:27;;;;;;;2.03;1.48;;;;;;;24.75;39.52;102459.34;5046738;28;20041;-59
2022/08/08 00:53:55;;;;;;;2.35;1.45;;;;;;;24.75;39.60;102464.78;5046180;28;20113;-58
2022/08/08 00:57:10;;;;;;;1.92;1.50;;;;;;;24.74;39.59;102463.94;5046815;28;20026;-59
2022/08/08 00:59:47;;;;;;;2.58;1.70;;;;;;;24.72;39.55;102455.09;5046809;28;20048;-59
2022/08/08 01:02:41;;;;;;;2.00;1.63;;;;;;;24.72;39.67;102460.53;5038122;28;20037;-59
2022/08/08 01:05:35;;;;;;;2.17;1.63;;;;;;;24.71;39.48;102458.84;4947079;29;20036;-59
2022/08/08 01:08:21;;;;;;;1.98;1.48;;;;;;;24.70;39.61;102465.31;4927650;29;20040;-59
2022/08/08 01:11:23;;;;;;;2.13;1.73;;;;;;;24.66;39.48;102466.66;4934772;29;20035;-59
2022/08/08 01:14:07;;;;;;;1.75;1.52;;;;;;;24.68;39.60;102473.66;4930636;29;20030;-59
2022/08/08 01:16:35;;;;;;;2.67;1.65;;;;;;;24.68;39.55;102470.06;4947053;29;20050;-59
2022/08/08 01:19:38;;;;;;;2.15;1.42;;;;;;;24.68;39.67;102478.25;4941820;29;20055;-59
2022/08/08 01:22:44;;;;;;;1.40;1.30;;;;;;;24.67;39.64;102476.50;4927553;29;20043;-59
2022/08/08 01:25:41;;;;;;;1.92;1.50;;;;;;;24.66;39.58;102478.38;4927829;29;20149;-59
2022/08/08 01:28:44;;;;;;;2.28;1.63;;;;;;;24.65;39.37;102467.69;4911508;29;20056;-59
2022/08/08 01:31:49;;;;;;;2.80;1.50;;;;;;;24.64;39.53;102474.16;4927811;29;20109;-59
2022/08/08 01:34:43;;;;;;;3.60;1.73;;;;;;;24.63;39.46;102465.13;4927727;29;20509;-59
2022/08/08 01:37:21;;;;;;;2.17;1.40;;;;;;;24.63;39.29;102464.28;4924280;29;20090;-59
2022/08/08 01:39:58;;;;;;;1.70;1.50;;;;;;;24.61;39.63;102466.31;4946330;29;20035;-59
2022/08/08 01:42:34;;;;;;;2.03;1.63;;;;;;;24.61;39.45;102471.75;4979440;28;20042;-59
2022/08/08 01:45:12;;;;;;;1.55;1.20;;;;;;;24.61;39.47;102474.47;5026339;28;20022;-59
2022/08/08 01:47:56;;;;;;;1.45;1.33;;;;;;;24.60;39.43;102476.34;5026019;28;20109;-59
2022/08/08 01:50:47;;;;;;;1.83;1.65;;;;;;;24.59;39.30;102468.34;5007885;28;20129;-59
2022/08/08 01:53:41;;;;;;;2.08;1.42;;;;;;;24.58;39.54;102466.66;5024398;28;20030;-60
2022/08/08 01:56:18;;;;;;;1.80;1.60;;;;;;;24.58;39.36;102470.22;5026121;28;20026;-59
2022/08/08 01:58:53;;;;;;;2.00;1.50;;;;;;;24.58;39.47;102463.94;5025745;28;20026;-59
2022/08/08 02:01:28;;;;;;;1.90;1.70;;;;;;;24.56;39.36;102461.41;5025052;28;20018;-59
2022/08/08 02:04:05;;;;;;;1.92;1.27;;;;;;;24.56;39.24;102468.72;5008237;28;20018;-59
2022/08/08 02:06:54;;;;;;;2.05;1.20;;;;;;;24.55;39.39;102469.69;5024700;28;20032;-59
2022/08/08 02:10:03;;;;;;;1.55;1.38;;;;;;;24.54;39.19;102474.28;5007744;28;20053;-59
2022/08/08 02:12:40;;;;;;;1.90;1.23;;;;;;;24.54;39.32;102473.44;5024860;28;20061;-59
2022/08/08 02:15:16;;;;;;;1.83;1.38;;;;;;;24.53;39.26;102463.59;5025867;28;20029;-60
2022/08/08 02:17:58;;;;;;;1.63;1.23;;;;;;;24.42;39.18;102443.00;5008103;28;20083;-59
2022/08/08 02:20:30;;;;;;;1.83;1.45;;;;;;;24.51;39.21;102466.50;5008271;28;20017;-60
2022/08/08 02:23:21;;;;;;;3.03;1.60;;;;;;;24.51;39.15;102471.94;5025253;28;20092;-59
2022/08/08 02:25:57;;;;;;;2.17;1.38;;;;;;;24.51;39.43;102473.78;5008090;28;20029;-59
2022/08/08 02:28:50;;;;;;;1.98;1.40;;;;;;;24.49;39.27;102476.69;5007732;28;20034;-60
2022/08/08 02:31:41;;;;;;;1.98;1.40;;;;;;;24.50;39.34;102469.38;5007995;28;20100;-60
2022/08/08 02:34:21;;;;;;;1.27;1.15;;;;;;;24.49;39.40;102473.09;5008259;28;20033;-59
2022/08/08 02:37:04;;;;;;;1.98;1.50;;;;;;;24.48;39.03;102468.69;5007690;28;20026;-60
2022/08/08 02:39:50;;;;;;;1.85;1.20;;;;;;;24.48;39.39;102463.25;5024950;28;20364;-59
2022/08/08 02:42:22;;;;;;;3.42;1.90;;;;;;;24.46;39.27;102471.56;5007649;28;20021;-59
2022/08/08 02:45:07;;;;;;;1.55;1.42;;;;;;;24.46;39.19;102471.56;5025375;28;20026;-59
2022/08/08 02:47:58;;;;;;;2.22;1.60;;;;;;;24.45;39.22;102475.31;5025192;28;20053;-59
2022/08/08 02:50:42;;;;;;;1.50;1.10;;;;;;;24.46;38.99;102473.44;5025214;28;20050;-59
2022/08/08 02:53:40;;;;;;;1.90;1.60;;;;;;;24.44;39.16;102474.47;5024858;28;20026;-59
2022/08/08 02:56:27;;;;;;;1.80;1.42;;;;;;;24.44;39.29;102476.34;5025641;28;20018;-60
2022/08/08 02:58:52;;;;;;;1.27;1.10;;;;;;;24.42;39.06;102475.63;5024817;28;20018;-59
2022/08/08 03:01:39;;;;;;;1.50;1.30;;;;;;;24.42;39.23;102478.34;5025691;28;20083;-60
2022/08/08 03:04:38;;;;;;;1.50;1.35;;;;;;;24.41;39.20;102480.22;5029352;28;20018;-59
2022/08/08 03:07:28;;;;;;;1.60;1.45;;;;;;;24.41;39.15;102473.94;5029044;28;20030;-59
2022/08/08 03:10:34;;;;;;;1.65;1.48;;;;;;;24.39;39.18;102473.28;5030763;28;20113;-59
2022/08/08 03:13:17;;;;;;;1.48;1.30;;;;;;;24.38;39.16;102480.59;5044394;28;20658;-59
2022/08/08 03:15:45;;;;;;;1.40;1.30;;;;;;;24.38;39.23;102471.53;5031204;28;20029;-59
2022/08/08 03:18:15;;;;;;;1.33;1.23;;;;;;;24.36;39.09;102471.69;5048621;28;20077;-59
2022/08/08 03:20:48;;;;;;;1.00;0.90;;;;;;;24.35;38.90;102470.00;5031267;28;20049;-60
2022/08/08 03:23:13;;;;;;;2.38;1.23;;;;;;;24.35;39.03;102478.16;5048447;28;20022;-60
2022/08/08 03:25:40;;;;;;;1.77;1.15;;;;;;;24.33;39.03;102468.44;5048912;28;20026;-60
2022/08/08 03:28:31;;;;;;;1.35;1.23;;;;;;;24.35;38.88;102477.31;5030705;28;20112;-60
2022/08/08 03:30:56;;;;;;;1.63;1.42;;;;;;;24.34;39.09;102475.59;5030738;28;20044;-59
2022/08/08 03:33:21;;;;;;;2.22;1.35;;;;;;;24.34;39.00;102486.47;5030623;28;20033;-59
2022/08/08 03:35:48;;;;;;;1.35;1.25;;;;;;;24.34;38.96;102491.91;5048656;28;20034;-59
2022/08/08 03:38:14;;;;;;;1.77;1.27;;;;;;;24.33;39.01;102490.19;5047747;28;20112;-60
2022/08/08 03:40:40;;;;;;;1.73;1.20;;;;;;;24.32;38.87;102493.94;5048490;28;20498;-59
2022/08/08 03:43:07;;;;;;;2.40;1.52;;;;;;;24.32;38.95;102494.78;5048041;28;20045;-60
2022/08/08 03:45:33;;;;;;;3.20;1.50;;;;;;;24.31;38.94;102493.09;5048605;28;20025;-60
2022/08/08 03:48:02;;;;;;;2.13;1.30;;;;;;;24.26;39.12;102484.59;5048141;28;20110;-60
2022/08/08 03:50:29;;;;;;;2.40;1.25;;;;;;;24.29;39.05;102495.13;5048400;28;20111;-60
2022/08/08 03:52:54;;;;;;;1.88;1.10;;;;;;;24.29;38.89;102497.84;5029556;28;20025;-59
2022/08/08 03:55:21;;;;;;;1.08;0.95;;;;;;;24.29;38.88;102508.72;5048272;28;20029;-60
2022/08/08 03:57:49;;;;;;;1.55;1.05;;;;;;;24.28;38.84;102507.00;5047771;28;20092;-60
2022/08/08 04:00:16;;;;;;;1.70;1.20;;;;;;;24.19;39.03;102489.84;5048005;28;20181;-60
2022/08/08 04:02:42;;;;;;;1.85;1.20;;;;;;;24.26;38.96;102509.06;5047957;28;20026;-60
2022/08/08 04:05:08;;;;;;;1.10;1.00;;;;;;;24.26;39.01;102506.34;5048028;28;20044;-60
2022/08/08 04:07:36;;;;;;;3.28;1.67;;;;;;;24.25;38.85;102507.34;5047456;28;20030;-59
2022/08/08 04:10:01;;;;;;;1.33;1.08;;;;;;;24.25;38.92;102517.34;5044638;28;20101;-59
2022/08/08 04:12:26;;;;;;;1.63;1.20;;;;;;;24.24;39.03;102511.06;5027449;28;20475;-60
2022/08/08 04:14:52;;;;;;;1.27;1.00;;;;;;;24.24;39.01;102508.34;5010366;28;20056;-59
2022/08/08 04:17:17;;;;;;;1.60;1.20;;;;;;;24.24;38.92;102518.38;5027850;28;20025;-59
2022/08/08 04:19:42;;;;;;;1.73;1.13;;;;;;;24.22;38.97;102518.56;5027616;28;20059;-59
2022/08/08 04:22:07;;;;;;;1.33;1.23;;;;;;;24.22;39.09;102524.00;5027772;28;20029;-59
2022/08/08 04:24:33;;;;;;;1.95;1.30;;;;;;;24.21;39.04;102525.00;5027548;28;20018;-59
2022/08/08 04:26:58;;;;;;;1.58;1.20;;;;;;;24.21;39.03;102516.84;5027667;28;20033;-59
2022/08/08 04:29:23;;;;;;;1.33;1.00;;;;;;;24.20;38.90;102521.44;5027381;28;20036;-60
2022/08/08 04:31:49;;;;;;;1.67;1.10;;;;;;;24.19;39.10;102522.44;5027502;28;20033;-60
2022/08/08 04:34:14;;;;;;;2.05;1.33;;;;;;;24.19;39.18;102518.88;5027481;28;20033;-59
2022/08/08 04:36:39;;;;;;;1.65;1.02;;;;;;;24.19;38.93;102527.03;5027643;28;20113;-59
2022/08/08 04:39:04;;;;;;;1.42;1.02;;;;;;;24.18;38.86;102526.19;5027001;28;20064;-60
2022/08/08 04:41:30;;;;;;;1.10;1.00;;;;;;;24.19;38.91;102532.47;5027556;28;20025;-59
2022/08/08 04:43:55;;;;;;;3.58;1.38;;;;;;;24.18;38.91;102528.06;5026955;28;20033;-59
2022/08/08 04:46:20;;;;;;;1.38;1.23;;;;;;;24.09;39.21;102526.34;5027680;28;20030;-60
2022/08/08 04:48:46;;;;;;;1.50;1.30;;;;;;;24.17;39.16;102546.22;5027205;28;20474;-59
2022/08/08 04:51:11;;;;;;;1.20;1.10;;;;;;;24.16;38.70;102535.50;5027344;28;20041;-60
2022/08/08 04:53:36;;;;;;;2.30;1.45;;;;;;;24.15;39.18;102537.38;5026772;28;20029;-60
2022/08/08 04:56:02;;;;;;;1.17;1.00;;;;;;;24.16;39.10;102535.50;5027365;28;20494;-59
2022/08/08 04:58:27;;;;;;;1.38;1.17;;;;;;;24.04;39.12;102518.66;5027026;28;20028;-60
2022/08/08 05:00:53;;;;;;;1.83;1.30;;;;;;;24.11;39.16;102540.59;5027215;28;20026;-59
2022/08/08 05:03:18;;;;;;;2.63;1.55;;;;;;;24.15;39.07;102547.41;5009082;28;20050;-60
2022/08/08 05:05:44;;;;;;;1.38;1.10;;;;;;;24.11;39.12;102544.16;5026378;28;20077;-59
2022/08/08 05:08:10;;;;;;;2.20;1.02;;;;;;;24.11;39.13;102538.72;5024849;28;20049;-59
2022/08/08 05:10:35;;;;;;;1.48;1.23;;;;;;;24.13;39.15;102549.44;5034539;28;20029;-59
2022/08/08 05:13:01;;;;;;;1.80;1.50;;;;;;;24.13;39.05;102549.44;5046170;28;20029;-59
2022/08/08 05:15:26;;;;;;;1.33;1.02;;;;;;;24.04;39.15;102537.66;5046731;28;20026;-61
2022/08/08 05:17:51;;;;;;;1.50;1.25;;;;;;;24.12;39.04;102553.16;5046085;28;20121;-60
2022/08/08 05:20:17;;;;;;;2.30;1.45;;;;;;;24.12;39.31;102547.72;5046544;28;20033;-60
2022/08/08 05:22:42;;;;;;;2.22;1.30;;;;;;;24.11;39.19;102552.31;5045623;28;20022;-59
2022/08/08 05:25:07;;;;;;;1.55;1.17;;;;;;;24.01;39.36;102535.28;5045489;28;20056;-59
2022/08/08 05:27:33;;;;;;;2.35;1.35;;;;;;;24.08;39.30;102549.06;5046127;28;20152;-58
2022/08/08 05:29:58;;;;;;;1.70;1.30;;;;;;;24.10;39.39;102550.63;5046061;28;20037;-60
2022/08/08 05:32:23;;;;;;;2.08;1.00;;;;;;;24.10;39.25;102555.19;5046049;28;20022;-60
2022/08/08 05:34:50;;;;;;;2.80;1.48;;;;;;;24.05;39.46;102541.25;5045876;28;20025;-60
2022/08/08 05:37:17;;;;;;;1.88;1.55;;;;;;;24.09;39.45;102550.78;5046031;28;20032;-60
2022/08/08 05:39:49;;;;;;;1.38;1.10;;;;;;;24.10;39.41;102555.19;5028023;28;20059;-59
2022/08/08 05:42:14;;;;;;;1.88;1.20;;;;;;;24.09;39.56;102553.50;5045855;28;20033;-60
2022/08/08 05:44:45;;;;;;;1.90;1.00;;;;;;;24.00;39.45;102540.88;5045798;28;20025;-60
2022/08/08 05:47:11;;;;;;;1.08;0.85;;;;;;;24.07;39.47;102556.38;5045912;28;20048;-60
2022/08/08 05:49:37;;;;;;;1.30;1.00;;;;;;;24.02;39.40;102550.56;5045493;28;20052;-59
2022/08/08 05:52:02;;;;;;;1.40;1.30;;;;;;;24.07;39.51;102564.50;5045716;28;20025;-59
2022/08/08 05:54:27;;;;;;;1.50;1.00;;;;;;;24.08;39.49;102566.22;5045422;28;20346;-59
2022/08/08 05:56:54;;;;;;;1.88;1.30;;;;;;;24.08;39.34;102563.50;5045722;28;20025;-60
2022/08/08 05:59:22;;;;;;;1.23;1.10;;;;;;;24.08;39.77;102568.94;5045369;28;20033;-60
2022/08/08 06:01:53;;;;;;;1.40;1.13;;;;;;;24.08;39.63;102560.78;5045674;28;20029;-60
2022/08/08 06:04:23;;;;;;;1.25;1.10;;;;;;;24.09;39.51;102561.66;5045796;28;20017;-59
2022/08/08 06:06:50;;;;;;;1.60;1.30;;;;;;;24.06;39.67;102551.09;5045685;28;20022;-60
2022/08/08 06:09:17;;;;;;;1.88;1.17;;;;;;;24.09;39.55;102564.38;5045122;28;20467;-60
2022/08/08 06:11:43;;;;;;;1.58;1.20;;;;;;;24.09;39.70;102558.94;5010683;28;20026;-61
2022/08/08 06:14:08;;;;;;;1.27;0.95;;;;;;;24.09;39.81;102554.34;5007887;28;20022;-60
2022/08/08 06:16:36;;;;;;;1.88;1.20;;;;;;;24.08;39.82;102552.63;5025643;28;20032;-60
2022/08/08 06:19:03;;;;;;;2.35;1.17;;;;;;;24.08;39.80;102560.78;5025192;28;20067;-60
2022/08/08 06:21:28;;;;;;;2.10;1.20;;;;;;;24.10;39.77;102563.34;5025889;28;20030;-60
2022/08/08 06:23:54;;;;;;;1.60;1.15;;;;;;;24.09;39.84;102562.50;5025200;28;20049;-60
2022/08/08 06:26:19;;;;;;;0.80;0.80;;;;;;;24.10;39.74;102566.91;5025690;28;20026;-60
2022/08/08 06:28:52;;;;;;;2.00;1.13;;;;;;;24.10;40.00;102561.47;5024718;28;20022;-60
2022/08/08 06:31:20;;;;;;;1.42;1.13;;;;;;;24.10;39.93;102566.06;5025696;28;20030;-59
2022/08/08 06:33:58;;;;;;;2.30;1.23;;;;;;;24.11;39.73;102574.03;5025333;28;20052;-60
2022/08/08 06:36:30;;;;;;;1.83;1.30;;;;;;;24.10;39.82;102569.63;5025485;28;20036;-60
2022/08/08 06:38:58;;;;;;;1.92;1.17;;;;;;;24.10;39.77;102575.06;5024893;28;20052;-60
2022/08/08 06:41:25;;;;;;;1.65;1.13;;;;;;;24.10;39.98;102575.06;5008173;28;20356;-60
2022/08/08 06:43:56;;;;;;;1.40;0.93;;;;;;;24.10;39.95;102571.50;5024850;28;20076;-60
2022/08/08 06:46:21;;;;;;;1.23;0.90;;;;;;;24.11;39.99;102574.03;5025394;28;20034;-59
2022/08/08 06:48:47;;;;;;;1.63;1.10;;;;;;;24.11;40.21;102581.34;5007308;28;20022;-60
2022/08/08 06:51:13;;;;;;;1.85;0.90;;;;;;;24.04;39.96;102558.56;5025117;28;20573;-59
2022/08/08 06:53:38;;;;;;;2.15;1.10;;;;;;;24.12;40.13;102583.06;5007127;28;20030;-60
2022/08/08 06:56:04;;;;;;;2.08;0.90;;;;;;;24.11;40.21;102573.19;5025233;28;20025;-60
2022/08/08 06:58:30;;;;;;;1.60;1.00;;;;;;;24.11;40.05;102575.91;5024761;28;20044;-59
2022/08/08 07:00:55;;;;;;;2.28;1.05;;;;;;;24.06;40.09;102572.84;5024441;28;20026;-59
2022/08/08 07:03:35;;;;;;;1.83;1.10;;;;;;;24.12;40.15;102583.06;5007576;28;20065;-60
2022/08/08 07:06:02;;;;;;;1.33;0.98;;;;;;;24.04;40.36;102573.00;5029768;28;20117;-60
2022/08/08 07:08:38;;;;;;;2.03;1.17;;;;;;;24.12;40.36;102583.91;5026143;28;20018;-59
2022/08/08 07:11:04;;;;;;;1.25;0.93;;;;;;;24.12;40.48;102583.06;5025547;28;20030;-59
2022/08/08 07:13:37;;;;;;;1.85;0.98;;;;;;;24.13;40.54;102592.94;5024877;28;20029;-59
2022/08/08 07:16:11;;;;;;;2.47;1.13;;;;;;;24.12;40.33;102592.03;5025393;28;20033;-57
2022/08/08 07:18:56;;;;;;;1.52;0.93;;;;;;;24.11;40.29;102578.63;5024918;28;20022;-59
2022/08/08 07:21:23;;;;;;;1.70;0.88;;;;;;;24.11;40.55;102592.22;5007871;28;20046;-59
2022/08/08 07:24:00;;;;;;;1.10;0.82;;;;;;;24.11;40.25;102589.50;5007053;28;20022;-60
2022/08/08 07:26:26;;;;;;;2.38;1.05;;;;;;;24.11;40.59;102594.94;5007398;28;20033;-60
2022/08/08 07:28:52;;;;;;;2.10;1.00;;;;;;;24.05;40.38;102577.44;5006814;28;20061;-60
2022/08/08 07:31:19;;;;;;;3.08;1.33;;;;;;;24.10;40.65;102585.94;5025078;28;20030;-59
2022/08/08 07:33:45;;;;;;;2.10;0.90;;;;;;;24.11;40.65;102597.66;5024472;28;20026;-59
2022/08/08 07:36:11;;;;;;;1.20;0.77;;;;;;;24.09;40.65;102591.53;5025069;28;20026;-60
2022/08/08 07:38:37;;;;;;;2.85;1.00;;;;;;;24.11;40.42;102600.38;5006597;28;20360;-59
2022/08/08 07:41:02;;;;;;;1.10;0.90;;;;;;;24.02;40.69;102588.63;5007225;28;20033;-60
2022/08/08 07:43:31;;;;;;;1.35;0.85;;;;;;;24.11;40.70;102600.38;5006956;28;20069;-60
2022/08/08 07:45:56;;;;;;;1.58;1.02;;;;;;;24.11;40.60;102603.09;5024842;28;20036;-59
2022/08/08 07:48:22;;;;;;;1.55;0.85;;;;;;;24.10;40.83;102606.84;5026468;28;20026;-60
2022/08/08 07:50:48;;;;;;;2.65;1.13;;;;;;;24.11;40.77;102611.25;5028182;28;20109;-60
2022/08/08 07:53:33;;;;;;;3.90;1.10;;;;;;;24.12;40.78;102599.34;5027884;28;20069;-59
2022/08/08 07:56:00;;;;;;;1.67;0.98;;;;;;;24.03;40.92;102593.03;5011019;28;20479;-60
2022/08/08 07:58:42;;;;;;;2.88;1.20;;;;;;;24.11;40.73;102603.09;5027861;28;20025;-60
2022/08/08 08:01:14;;;;;;;2.45;1.35;;;;;;;24.11;40.73;102608.53;5028410;28;20030;-60
2022/08/08 08:04:00;;;;;;;1.20;0.90;;;;;;;24.11;40.94;102617.53;5011074;28;20076;-59
2022/08/08 08:06:26;;;;;;;2.95;1.63;;;;;;;24.11;40.65;102619.41;5010542;28;20447;-59
2022/08/08 08:09:18;;;;;;;1.55;0.90;;;;;;;24.12;40.81;102623.81;5027079;28;20053;-59
2022/08/08 08:11:48;;;;;;;1.67;0.80;;;;;;;24.10;41.01;102629.41;5026983;28;20022;-59
2022/08/08 08:14:17;;;;;;;2.05;1.08;;;;;;;24.12;40.76;102623.81;5047477;28;20029;-60
2022/08/08 08:16:46;;;;;;;2.38;1.27;;;;;;;24.10;40.92;102613.13;5047667;28;20026;-60
2022/08/08 08:19:12;;;;;;;;;;;;;;;24.10;40.89;102621.28;5047721;28;20032;-60
2022/08/08 08:21:39;;;;;;;1.40;0.65;;;;;;;24.11;41.01;102622.13;5047706;28;19909;-60
2022/08/08 08:24:05;;;;;;;1.08;0.98;;;;;;;24.12;40.90;102623.81;5047175;28;20041;-59
2022/08/08 08:26:31;;;;;;;1.92;1.02;;;;;;;24.12;41.03;102613.78;5048124;28;20033;-59
2022/08/08 08:28:56;;;;;;;1.30;0.82;;;;;;;23.92;40.96;102579.75;5047397;28;20079;-59
2022/08/08 08:31:21;;;;;;;1.70;0.85;;;;;;;24.13;40.91;102620.09;5047634;28;20038;-60
2022/08/08 08:33:47;;;;;;;1.20;0.90;;;;;;;24.15;40.91;102616.19;5047078;28;20040;-60
2022/08/08 08:36:12;;;;;;;1.17;1.02;;;;;;;24.12;41.01;102611.06;5047281;28;20033;-60
2022/08/08 08:38:38;;;;;;;2.50;0.75;;;;;;;24.17;40.87;102616.91;5046557;28;20032;-58
2022/08/08 08:41:05;;;;;;;2.13;0.82;;;;;;;24.17;41.00;102616.00;5047396;28;20022;-59
2022/08/08 08:43:32;;;;;;;1.77;0.90;;;;;;;24.20;41.06;102611.13;5046952;28;20018;-60
2022/08/08 08:45:58;;;;;;;1.27;0.80;;;;;;;24.23;41.07;102617.25;5047122;28;20269;-60
2022/08/08 08:48:24;;;;;;;1.40;0.68;;;;;;;24.21;41.18;102609.25;5046975;28;20021;-59
2022/08/08 08:50:51;;;;;;;1.77;0.80;;;;;;;24.24;41.24;102617.06;5028858;28;20054;-59
2022/08/08 08:53:17;;;;;;;1.77;1.00;;;;;;;24.26;40.95;102615.06;5046610;28;20041;-59
2022/08/08 08:55:43;;;;;;;2.13;0.80;;;;;;;24.28;41.10;102623.91;5047077;28;20029;-60
2022/08/08 08:58:18;;;;;;;2.15;0.80;;;;;;;24.30;41.11;102621.88;5046806;28;20062;-60
2022/08/08 09:00:44;;;;;;;1.13;0.70;;;;;;;24.32;41.04;102628.00;5029027;28;20034;-59
2022/08/08 09:03:10;;;;;;;1.40;0.80;;;;;;;24.31;41.01;102626.28;5012687;28;20036;-60
2022/08/08 09:05:38;;;;;;;1.55;0.80;;;;;;;24.36;41.26;102628.53;5029129;28;20065;-60
2022/08/08 09:08:05;;;;;;;1.17;0.65;;;;;;;24.37;41.06;102635.66;5046100;28;20029;-59
2022/08/08 09:10:31;;;;;;;1.35;0.80;;;;;;;24.37;41.25;102631.09;5039491;28;20085;-59
2022/08/08 09:12:57;;;;;;;2.00;0.95;;;;;;;24.36;41.32;102620.38;5008982;28;20032;-59
2022/08/08 09:15:23;;;;;;;1.33;0.88;;;;;;;24.38;41.24;102630.09;5026713;28;20040;-59
2022/08/08 09:17:49;;;;;;;1.67;0.70;;;;;;;24.39;41.29;102626.38;5009182;28;20096;-60
2022/08/08 09:20:15;;;;;;;1.10;0.80;;;;;;;24.41;41.67;102620.75;5026369;28;20057;-60
2022/08/08 09:22:40;;;;;;;1.63;0.88;;;;;;;24.40;41.54;102617.19;5026649;28;20033;-58
2022/08/08 09:25:07;;;;;;;2.08;0.93;;;;;;;24.44;41.79;102625.88;5026198;28;20082;-60
2022/08/08 09:27:33;;;;;;;1.20;0.70;;;;;;;24.46;42.14;102622.97;5008901;28;20022;-60
2022/08/08 09:30:07;;;;;;;1.88;0.80;;;;;;;24.46;42.20;102615.66;5008791;28;20375;-59
2022/08/08 09:32:47;;;;;;;1.05;0.80;;;;;;;24.49;42.04;102620.78;5026584;28;20026;-60
2022/08/08 09:35:27;;;;;;;0.98;0.80;;;;;;;24.50;42.00;102621.63;5026310;28;20041;-59
2022/08/08 09:37:55;;;;;;;1.67;0.70;;;;;;;24.50;41.85;102618.91;5008122;28;20524;-60
2022/08/08 09:40:23;;;;;;;1.40;0.68;;;;;;;24.51;41.91;102628.75;5026354;28;20032;-60
2022/08/08 09:42:50;;;;;;;1.23;0.80;;;;;;;24.52;42.03;102617.75;5026270;28;20049;-59
2022/08/08 09:45:21;;;;;;;1.10;0.68;;;;;;;24.53;41.85;102616.72;5026336;28;20799;-59
2022/08/08 09:47:48;;;;;;;1.40;0.75;;;;;;;24.54;41.80;102618.41;5026147;28;20021;-60
2022/08/08 09:50:16;;;;;;;1.88;0.82;;;;;;;24.55;41.65;102619.25;5025827;28;20065;-60
2022/08/08 09:52:46;;;;;;;1.00;0.80;;;;;;;24.54;41.67;102621.13;5026139;28;20117;-60
2022/08/08 09:55:13;;;;;;;1.27;0.70;;;;;;;24.54;41.73;102623.00;5025905;28;20136;-60
2022/08/08 09:57:40;;;;;;;1.25;0.52;;;;;;;24.53;41.79;102621.31;5026018;28;20036;-60
2022/08/08 10:00:11;;;;;;;1.02;0.60;;;;;;;24.53;41.43;102616.72;5026022;28;20116;-60
2022/08/08 10:02:41;;;;;;;1.15;0.70;;;;;;;24.56;41.61;102612.84;5025961;28;20105;-60
2022/08/08 10:05:26;;;;;;;2.45;1.02;;;;;;;24.48;41.52;102613.66;5008509;28;20135;-60
2022/08/08 10:07:51;;;;;;;1.70;0.85;;;;;;;24.56;41.65;102627.28;5025342;28;20030;-60
2022/08/08 10:10:23;;;;;;;1.05;0.68;;;;;;;24.58;41.46;102630.66;5030425;28;20104;-59
2022/08/08 10:12:49;;;;;;;1.38;0.60;;;;;;;24.59;41.68;102628.78;5045176;28;20025;-59
2022/08/08 10:15:14;;;;;;;2.28;0.75;;;;;;;24.60;41.52;102623.22;5045270;28;20030;-59
2022/08/08 10:17:51;;;;;;;2.35;0.80;;;;;;;24.63;41.57;102627.44;5027613;28;20025;-59
2022/08/08 10:20:16;;;;;;;1.42;0.98;;;;;;;24.62;41.57;102633.91;5045340;28;20124;-60
2022/08/08 10:23:08;;;;;;;1.38;0.90;;;;;;;24.63;41.42;102628.31;5045316;28;20025;-57
2022/08/08 10:25:35;;;;;;;1.33;0.90;;;;;;;24.64;41.66;102631.91;5023140;28;20037;-59
2022/08/08 10:28:01;;;;;;;0.95;0.60;;;;;;;24.62;41.55;102634.75;5044879;28;20025;-60
2022/08/08 10:30:26;;;;;;;1.45;0.50;;;;;;;24.61;41.62;102630.34;5045294;28;20033;-60
2022/08/08 10:32:54;;;;;;;2.13;0.70;;;;;;;24.59;41.45;102626.94;5045226;28;20041;-59
2022/08/08 10:35:22;;;;;;;1.00;0.80;;;;;;;24.59;41.50;102636.97;5045521;28;20144;-60
2022/08/08 10:37:56;;;;;;;2.92;0.93;;;;;;;24.59;41.78;102626.06;5045116;28;20093;-58
2022/08/08 10:40:23;;;;;;;1.83;0.85;;;;;;;24.60;41.79;102625.94;5045011;28;20018;-59
2022/08/08 10:42:54;;;;;;;1.90;0.75;;;;;;;24.62;41.70;102623.03;5044839;28;20032;-59
2022/08/08 10:45:20;;;;;;;1.48;0.50;;;;;;;24.56;41.80;102610.13;5045465;28;20052;-60
2022/08/08 10:47:54;;;;;;;2.22;1.05;;;;;;;24.65;41.74;102612.69;5044883;28;20055;-58
2022/08/08 10:50:20;;;;;;;2.22;0.65;;;;;;;24.66;41.61;102616.25;5044914;28;20048;-60
2022/08/08 10:52:45;;;;;;;1.58;0.80;;;;;;;24.65;41.89;102618.13;5045002;28;20029;-59
2022/08/08 10:55:13;;;;;;;2.15;0.70;;;;;;;24.66;41.87;102629.84;5044565;28;20434;-59
2022/08/08 10:57:49;;;;;;;1.27;0.80;;;;;;;24.64;41.81;102626.47;5045305;28;20028;-59
2022/08/08 11:00:19;;;;;;;1.58;0.57;;;;;;;24.66;41.66;102624.41;5044772;28;20032;-59
2022/08/08 11:02:44;;;;;;;1.17;0.70;;;;;;;24.65;41.69;102620.84;5044913;28;20032;-59
2022/08/08 11:05:13;;;;;;;1.48;0.77;;;;;;;24.63;41.72;102620.16;5044946;28;20049;-60
2022/08/08 11:07:40;;;;;;;1.42;0.93;;;;;;;24.66;41.89;102622.53;5044842;28;20021;-59
2022/08/08 11:10:13;;;;;;;1.30;0.60;;;;;;;24.66;41.71;102617.09;5040311;28;20329;-59
2022/08/08 11:12:52;;;;;;;1.13;0.60;;;;;;;24.64;41.79;102604.69;5024889;28;20057;-59
2022/08/08 11:15:18;;;;;;;;;;;;;;;24.68;41.88;102615.09;5025449;28;20105;-59
2022/08/08 11:17:44;;;;;;;1.23;0.55;;;;;;;24.69;41.94;102618.66;5024782;28;20386;-58
2022/08/08 11:20:21;;;;;;;1.00;0.60;;;;;;;24.67;41.68;102624.22;5024750;28;20078;-59
2022/08/08 11:22:57;;;;;;;0.82;0.40;;;;;;;24.66;41.83;102611.66;5025879;28;20052;-59
2022/08/08 11:25:29;;;;;;;1.45;0.60;;;;;;;24.67;41.73;102615.22;5011311;28;20022;-59
2022/08/08 11:27:56;;;;;;;1.05;0.90;;;;;;;24.67;41.86;102610.63;5028743;28;20022;-59
2022/08/08 11:30:23;;;;;;;1.02;0.50;;;;;;;24.62;41.61;102598.56;5028710;28;20141;-59
2022/08/08 11:32:52;;;;;;;0.88;0.52;;;;;;;24.69;41.78;102605.06;5028628;28;20033;-58
2022/08/08 11:35:18;;;;;;;1.88;0.73;;;;;;;24.70;41.70;102598.59;5028777;28;20026;-59
2022/08/08 11:37:43;;;;;;;0.65;0.60;;;;;;;24.69;41.72;102600.47;5028602;28;20048;-58
2022/08/08 11:40:10;;;;;;;1.40;0.70;;;;;;;24.67;41.73;102594.31;5010385;28;20060;-59
2022/08/08 11:42:37;;;;;;;1.63;0.60;;;;;;;24.69;41.59;102600.47;5028161;28;20022;-60
2022/08/08 11:45:05;;;;;;;1.15;0.85;;;;;;;24.71;41.70;102602.16;5028553;28;20018;-59
2022/08/08 11:47:31;;;;;;;0.47;0.40;;;;;;;24.73;41.93;102597.41;5028313;28;20021;-59
2022/08/08 11:49:59;;;;;;;1.58;0.60;;;;;;;24.75;41.75;102601.66;5028068;28;20077;-59
2022/08/08 11:52:25;;;;;;;1.02;0.50;;;;;;;24.76;41.55;102584.31;5011144;28;20030;-59
2022/08/08 11:54:51;;;;;;;1.52;0.60;;;;;;;24.78;41.72;102589.59;5009995;28;20034;-60